sensor_id;sensor_type;location;lat;lon;timestamp;temperature;humidity
23591;DHT22;11973;52.098;7.582;2023-05-14T04:00:31;11.40;80.30
23591;DHT22;11973;52.098;7.582;2023-05-14T04:02:57;11.40;80.40
23591;DHT22;11973;52.098;7.582;2023-05-14T04:05:23;11.40;80.60
23591;DHT22;11973;52.098;7.582;2023-05-14T04:07:49;11.40;80.70
23591;DHT22;11973;52.098;7.582;2023-05-14T04:10:14;11.50;80.80
23591;DHT22;11973;52.098;7.582;2023-05-14T04:12:40;11.50;80.80
23591;DHT22;11973;52.098;7.582;2023-05-14T04:15:07;11.50;81.00
23591;DHT22;11973;52.098;7.582;2023-05-14T04:17:33;11.60;81.20
23591;DHT22;11973;52.098;7.582;2023-05-14T04:19:58;11.60;81.30
23591;DHT22;11973;52.098;7.582;2023-05-14T04:22:24;11.60;81.30
23591;DHT22;11973;52.098;7.582;2023-05-14T04:24:50;11.60;81.40
23591;DHT22;11973;52.098;7.582;2023-05-14T04:27:19;11.60;81.40
23591;DHT22;11973;52.098;7.582;2023-05-14T04:29:46;11.70;81.50
23591;DHT22;11973;52.098;7.582;2023-05-14T04:32:12;11.70;81.50
23591;DHT22;11973;52.098;7.582;2023-05-14T04:34:37;11.80;81.70
23591;DHT22;11973;52.098;7.582;2023-05-14T04:37:04;11.80;81.80
23591;DHT22;11973;52.098;7.582;2023-05-14T04:39:30;11.70;81.80
23591;DHT22;11973;52.098;7.582;2023-05-14T04:41:55;11.70;81.90
23591;DHT22;11973;52.098;7.582;2023-05-14T04:44:21;11.70;81.90
23591;DHT22;11973;52.098;7.582;2023-05-14T04:46:47;11.70;82.00
23591;DHT22;11973;52.098;7.582;2023-05-14T04:49:12;11.90;82.30
23591;DHT22;11973;52.098;7.582;2023-05-14T04:51:38;11.70;82.20
23591;DHT22;11973;52.098;7.582;2023-05-14T04:54:04;11.70;82.20
23591;DHT22;11973;52.098;7.582;2023-05-14T04:56:30;11.70;82.30
23591;DHT22;11973;52.098;7.582;2023-05-14T04:58:55;11.70;82.40
23591;DHT22;11973;52.098;7.582;2023-05-14T05:01:21;11.70;82.50
23591;DHT22;11973;52.098;7.582;2023-05-14T05:03:47;11.70;82.50
23591;DHT22;11973;52.098;7.582;2023-05-14T05:06:13;11.80;82.70
23591;DHT22;11973;52.098;7.582;2023-05-14T05:08:39;11.80;82.80
23591;DHT22;11973;52.098;7.582;2023-05-14T05:11:06;12.00;83.10
23591;DHT22;11973;52.098;7.582;2023-05-14T05:13:31;11.80;83.00
23591;DHT22;11973;52.098;7.582;2023-05-14T05:15:57;11.80;83.10
23591;DHT22;11973;52.098;7.582;2023-05-14T05:18:23;11.80;83.20
23591;DHT22;11973;52.098;7.582;2023-05-14T05:20:48;11.90;83.30
23591;DHT22;11973;52.098;7.582;2023-05-14T05:23:14;11.90;83.40
23591;DHT22;11973;52.098;7.582;2023-05-14T05:25:40;11.90;83.50
23591;DHT22;11973;52.098;7.582;2023-05-14T05:28:06;12.20;83.90
23591;DHT22;11973;52.098;7.582;2023-05-14T05:30:32;12.20;84.00
23591;DHT22;11973;52.098;7.582;2023-05-14T05:32:57;12.10;84.00
23591;DHT22;11973;52.098;7.582;2023-05-14T05:35:23;12.20;84.90
23591;DHT22;11973;52.098;7.582;2023-05-14T05:37:49;12.40;85.10
23591;DHT22;11973;52.098;7.582;2023-05-14T05:40:15;12.40;84.40
23591;DHT22;11973;52.098;7.582;2023-05-14T05:42:41;12.50;84.60
23591;DHT22;11973;52.098;7.582;2023-05-14T05:45:07;12.70;84.80
23591;DHT22;11973;52.098;7.582;2023-05-14T05:47:33;12.70;84.80
23591;DHT22;11973;52.098;7.582;2023-05-14T05:49:58;12.90;84.90
23591;DHT22;11973;52.098;7.582;2023-05-14T05:52:24;13.00;85.70
23591;DHT22;11973;52.098;7.582;2023-05-14T05:54:50;13.10;85.00
23591;DHT22;11973;52.098;7.582;2023-05-14T05:57:16;13.30;85.10
23591;DHT22;11973;52.098;7.582;2023-05-14T05:59:42;13.30;84.80
23591;DHT22;11973;52.098;7.582;2023-05-14T06:02:07;13.40;84.70
23591;DHT22;11973;52.098;7.582;2023-05-14T06:04:33;13.50;84.60
23591;DHT22;11973;52.098;7.582;2023-05-14T06:06:59;13.60;84.50
23591;DHT22;11973;52.098;7.582;2023-05-14T06:09:25;13.60;84.40
23591;DHT22;11973;52.098;7.582;2023-05-14T06:11:51;13.70;84.40
23591;DHT22;11973;52.098;7.582;2023-05-14T06:14:17;13.80;84.40
23591;DHT22;11973;52.098;7.582;2023-05-14T06:16:43;13.80;84.30
23591;DHT22;11973;52.098;7.582;2023-05-14T06:19:08;13.90;84.30
23591;DHT22;11973;52.098;7.582;2023-05-14T06:21:34;13.90;84.20
23591;DHT22;11973;52.098;7.582;2023-05-14T06:24:00;14.00;84.20
23591;DHT22;11973;52.098;7.582;2023-05-14T06:26:25;14.00;84.10
23591;DHT22;11973;52.098;7.582;2023-05-14T06:28:53;14.10;84.10
23591;DHT22;11973;52.098;7.582;2023-05-14T06:31:18;14.20;84.90
23591;DHT22;11973;52.098;7.582;2023-05-14T06:33:44;14.20;84.00
23591;DHT22;11973;52.098;7.582;2023-05-14T06:36:10;14.20;83.90
23591;DHT22;11973;52.098;7.582;2023-05-14T06:38:39;14.30;84.00
23591;DHT22;11973;52.098;7.582;2023-05-14T06:41:05;14.40;83.90
23591;DHT22;11973;52.098;7.582;2023-05-14T06:43:31;14.50;84.00
23591;DHT22;11973;52.098;7.582;2023-05-14T06:45:57;14.50;84.00
23591;DHT22;11973;52.098;7.582;2023-05-14T06:48:23;14.60;84.10
23591;DHT22;11973;52.098;7.582;2023-05-14T06:50:48;14.70;84.20
23591;DHT22;11973;52.098;7.582;2023-05-14T06:53:15;14.80;84.30
23591;DHT22;11973;52.098;7.582;2023-05-14T06:55:41;14.90;84.40
23591;DHT22;11973;52.098;7.582;2023-05-14T06:58:07;15.00;84.40
23591;DHT22;11973;52.098;7.582;2023-05-14T07:00:33;15.10;84.40
23591;DHT22;11973;52.098;7.582;2023-05-14T07:03:00;15.20;84.40
23591;DHT22;11973;52.098;7.582;2023-05-14T07:05:26;15.30;84.30
23591;DHT22;11973;52.098;7.582;2023-05-14T07:07:52;15.40;84.20
23591;DHT22;11973;52.098;7.582;2023-05-14T07:10:19;15.50;84.30
23591;DHT22;11973;52.098;7.582;2023-05-14T07:12:45;15.60;84.20
23591;DHT22;11973;52.098;7.582;2023-05-14T07:15:10;15.70;84.20
23591;DHT22;11973;52.098;7.582;2023-05-14T07:17:36;15.80;84.10
23591;DHT22;11973;52.098;7.582;2023-05-14T07:20:02;15.90;84.90
23591;DHT22;11973;52.098;7.582;2023-05-14T07:22:28;16.00;84.10
23591;DHT22;11973;52.098;7.582;2023-05-14T07:24:54;16.10;84.80
23591;DHT22;11973;52.098;7.582;2023-05-14T07:27:19;16.10;83.90
23591;DHT22;11973;52.098;7.582;2023-05-14T07:29:46;16.20;84.10
23591;DHT22;11973;52.098;7.582;2023-05-14T07:32:12;16.20;84.60
23591;DHT22;11973;52.098;7.582;2023-05-14T07:34:37;16.30;83.80
23591;DHT22;11973;52.098;7.582;2023-05-14T07:37:03;16.30;83.70
23591;DHT22;11973;52.098;7.582;2023-05-14T07:39:29;16.40;83.70
23591;DHT22;11973;52.098;7.582;2023-05-14T07:41:55;16.40;83.70
23591;DHT22;11973;52.098;7.582;2023-05-14T07:44:21;16.50;83.70
23591;DHT22;11973;52.098;7.582;2023-05-14T07:46:46;16.50;83.60
23591;DHT22;11973;52.098;7.582;2023-05-14T07:49:12;16.60;83.60
23591;DHT22;11973;52.098;7.582;2023-05-14T07:51:38;16.60;83.40
23591;DHT22;11973;52.098;7.582;2023-05-14T07:54:04;16.70;83.40
23591;DHT22;11973;52.098;7.582;2023-05-14T07:56:30;16.80;83.50
23591;DHT22;11973;52.098;7.582;2023-05-14T07:58:56;16.90;83.70
23591;DHT22;11973;52.098;7.582;2023-05-14T08:01:21;16.90;83.70
23591;DHT22;11973;52.098;7.582;2023-05-14T08:03:47;17.00;84.30
23591;DHT22;11973;52.098;7.582;2023-05-14T08:06:13;17.10;83.50
23591;DHT22;11973;52.098;7.582;2023-05-14T08:08:39;17.20;84.20
23591;DHT22;11973;52.098;7.582;2023-05-14T08:11:05;17.30;83.40
23591;DHT22;11973;52.098;7.582;2023-05-14T08:13:31;17.30;83.30
23591;DHT22;11973;52.098;7.582;2023-05-14T08:15:57;17.40;83.30
23591;DHT22;11973;52.098;7.582;2023-05-14T08:18:22;17.50;83.20
23591;DHT22;11973;52.098;7.582;2023-05-14T08:20:48;17.50;83.10
23591;DHT22;11973;52.098;7.582;2023-05-14T08:23:14;17.60;83.10
23591;DHT22;11973;52.098;7.582;2023-05-14T08:25:40;17.70;82.90
23591;DHT22;11973;52.098;7.582;2023-05-14T08:28:06;17.70;82.60
23591;DHT22;11973;52.098;7.582;2023-05-14T08:30:32;17.80;82.50
23591;DHT22;11973;52.098;7.582;2023-05-14T08:32:58;17.80;82.30
23591;DHT22;11973;52.098;7.582;2023-05-14T08:35:24;17.90;82.20
23591;DHT22;11973;52.098;7.582;2023-05-14T08:37:50;17.90;82.80
23591;DHT22;11973;52.098;7.582;2023-05-14T08:40:17;18.00;82.20
23591;DHT22;11973;52.098;7.582;2023-05-14T08:42:43;18.00;81.80
23591;DHT22;11973;52.098;7.582;2023-05-14T08:45:18;18.00;81.70
23591;DHT22;11973;52.098;7.582;2023-05-14T08:47:48;18.00;81.40
23591;DHT22;11973;52.098;7.582;2023-05-14T08:50:17;18.10;81.40
23591;DHT22;11973;52.098;7.582;2023-05-14T08:52:44;18.10;81.30
23591;DHT22;11973;52.098;7.582;2023-05-14T08:55:11;18.20;81.10
23591;DHT22;11973;52.098;7.582;2023-05-14T08:57:38;18.20;80.90
23591;DHT22;11973;52.098;7.582;2023-05-14T09:00:05;18.20;80.80
23591;DHT22;11973;52.098;7.582;2023-05-14T09:02:36;18.30;80.80
23591;DHT22;11973;52.098;7.582;2023-05-14T09:05:03;18.30;80.80
23591;DHT22;11973;52.098;7.582;2023-05-14T09:07:30;18.30;80.40
23591;DHT22;11973;52.098;7.582;2023-05-14T09:09:56;18.40;80.50
23591;DHT22;11973;52.098;7.582;2023-05-14T09:12:22;18.50;80.60
23591;DHT22;11973;52.098;7.582;2023-05-14T09:14:49;18.50;80.40
23591;DHT22;11973;52.098;7.582;2023-05-14T09:17:16;18.60;80.40
23591;DHT22;11973;52.098;7.582;2023-05-14T09:19:43;18.70;80.20
23591;DHT22;11973;52.098;7.582;2023-05-14T09:22:13;18.70;80.20
23591;DHT22;11973;52.098;7.582;2023-05-14T09:24:39;18.80;80.10
23591;DHT22;11973;52.098;7.582;2023-05-14T09:27:05;18.90;79.90
23591;DHT22;11973;52.098;7.582;2023-05-14T09:29:33;18.90;79.60
23591;DHT22;11973;52.098;7.582;2023-05-14T09:31:59;19.00;80.20
23591;DHT22;11973;52.098;7.582;2023-05-14T09:34:33;19.00;79.20
23591;DHT22;11973;52.098;7.582;2023-05-14T09:37:04;19.10;79.00
23591;DHT22;11973;52.098;7.582;2023-05-14T09:39:30;19.20;79.00
23591;DHT22;11973;52.098;7.582;2023-05-14T09:41:56;19.20;78.80
23591;DHT22;11973;52.098;7.582;2023-05-14T09:44:23;19.30;78.90
23591;DHT22;11973;52.098;7.582;2023-05-14T09:46:49;19.40;78.90
23591;DHT22;11973;52.098;7.582;2023-05-14T09:49:16;19.40;78.70
23591;DHT22;11973;52.098;7.582;2023-05-14T09:51:42;19.50;78.40
23591;DHT22;11973;52.098;7.582;2023-05-14T09:54:08;19.50;78.10
23591;DHT22;11973;52.098;7.582;2023-05-14T09:56:35;19.50;78.70
23591;DHT22;11973;52.098;7.582;2023-05-14T09:59:02;19.60;77.90
23591;DHT22;11973;52.098;7.582;2023-05-14T10:01:29;19.60;77.70
23591;DHT22;11973;52.098;7.582;2023-05-14T10:03:55;19.60;77.30
23591;DHT22;11973;52.098;7.582;2023-05-14T10:06:29;19.70;77.30
23591;DHT22;11973;52.098;7.582;2023-05-14T10:09:00;19.70;77.10
23591;DHT22;11973;52.098;7.582;2023-05-14T10:11:30;19.70;77.10
23591;DHT22;11973;52.098;7.582;2023-05-14T10:14:09;19.80;77.00
23591;DHT22;11973;52.098;7.582;2023-05-14T10:16:40;19.80;76.40
23591;DHT22;11973;52.098;7.582;2023-05-14T10:19:09;19.90;76.50
23591;DHT22;11973;52.098;7.582;2023-05-14T10:21:37;19.90;76.30
23591;DHT22;11973;52.098;7.582;2023-05-14T10:24:04;20.00;76.00
23591;DHT22;11973;52.098;7.582;2023-05-14T10:26:37;20.00;75.70
23591;DHT22;11973;52.098;7.582;2023-05-14T10:29:08;20.00;75.40
23591;DHT22;11973;52.098;7.582;2023-05-14T10:31:50;20.00;75.30
23591;DHT22;11973;52.098;7.582;2023-05-14T10:37:13;20.10;74.50
23591;DHT22;11973;52.098;7.582;2023-05-14T10:39:44;20.20;74.70
23591;DHT22;11973;52.098;7.582;2023-05-14T10:42:16;20.30;74.30
23591;DHT22;11973;52.098;7.582;2023-05-14T10:44:48;20.40;74.00
23591;DHT22;11973;52.098;7.582;2023-05-14T10:47:14;20.40;73.70
23591;DHT22;11973;52.098;7.582;2023-05-14T10:49:42;20.50;73.80
23591;DHT22;11973;52.098;7.582;2023-05-14T10:52:10;20.60;73.80
23591;DHT22;11973;52.098;7.582;2023-05-14T10:54:36;20.70;73.70
23591;DHT22;11973;52.098;7.582;2023-05-14T10:57:02;20.90;73.70
23591;DHT22;11973;52.098;7.582;2023-05-14T10:59:28;21.00;73.70
23591;DHT22;11973;52.098;7.582;2023-05-14T11:01:56;21.20;73.70
23591;DHT22;11973;52.098;7.582;2023-05-14T11:04:26;21.30;73.40
23591;DHT22;11973;52.098;7.582;2023-05-14T11:06:54;21.50;72.90
23591;DHT22;11973;52.098;7.582;2023-05-14T11:09:20;21.60;72.60
23591;DHT22;11973;52.098;7.582;2023-05-14T11:11:47;21.80;72.50
23591;DHT22;11973;52.098;7.582;2023-05-14T11:14:13;21.90;72.40
23591;DHT22;11973;52.098;7.582;2023-05-14T11:16:39;22.00;72.90
23591;DHT22;11973;52.098;7.582;2023-05-14T11:19:05;22.10;72.00
23591;DHT22;11973;52.098;7.582;2023-05-14T11:21:31;22.30;71.90
23591;DHT22;11973;52.098;7.582;2023-05-14T11:23:59;22.50;71.60
23591;DHT22;11973;52.098;7.582;2023-05-14T11:26:25;22.60;71.30
23591;DHT22;11973;52.098;7.582;2023-05-14T11:28:51;22.70;71.00
23591;DHT22;11973;52.098;7.582;2023-05-14T11:31:17;22.70;70.40
23591;DHT22;11973;52.098;7.582;2023-05-14T11:33:43;22.80;70.10
23591;DHT22;11973;52.098;7.582;2023-05-14T11:36:10;22.80;69.70
23591;DHT22;11973;52.098;7.582;2023-05-14T11:38:45;22.90;70.30
23591;DHT22;11973;52.098;7.582;2023-05-14T11:41:16;22.80;68.60
23591;DHT22;11973;52.098;7.582;2023-05-14T11:43:45;22.80;69.30
23591;DHT22;11973;52.098;7.582;2023-05-14T11:46:15;22.80;68.30
23591;DHT22;11973;52.098;7.582;2023-05-14T11:48:42;22.80;68.00
23591;DHT22;11973;52.098;7.582;2023-05-14T11:51:08;23.00;68.40
23591;DHT22;11973;52.098;7.582;2023-05-14T11:53:34;23.10;68.10
23591;DHT22;11973;52.098;7.582;2023-05-14T11:55:59;23.20;67.80
23591;DHT22;11973;52.098;7.582;2023-05-14T11:58:31;23.30;67.90
23591;DHT22;11973;52.098;7.582;2023-05-14T12:00:58;23.50;67.30
23591;DHT22;11973;52.098;7.582;2023-05-14T12:03:24;23.60;67.00
23591;DHT22;11973;52.098;7.582;2023-05-14T12:06:01;23.70;66.40
23591;DHT22;11973;52.098;7.582;2023-05-14T12:08:31;23.70;65.70
23591;DHT22;11973;52.098;7.582;2023-05-14T12:10:58;23.70;65.70
23591;DHT22;11973;52.098;7.582;2023-05-14T12:13:26;23.80;65.50
23591;DHT22;11973;52.098;7.582;2023-05-14T12:15:59;23.90;65.20
23591;DHT22;11973;52.098;7.582;2023-05-14T12:18:27;24.10;64.80
23591;DHT22;11973;52.098;7.582;2023-05-14T12:20:54;24.10;64.40
23591;DHT22;11973;52.098;7.582;2023-05-14T12:23:29;24.20;64.10
23591;DHT22;11973;52.098;7.582;2023-05-14T12:25:59;24.10;63.50
23591;DHT22;11973;52.098;7.582;2023-05-14T12:28:26;24.10;63.70
23591;DHT22;11973;52.098;7.582;2023-05-14T12:30:57;24.00;63.50
23591;DHT22;11973;52.098;7.582;2023-05-14T12:33:26;23.90;62.80
23591;DHT22;11973;52.098;7.582;2023-05-14T12:35:53;23.80;62.80
23591;DHT22;11973;52.098;7.582;2023-05-14T12:38:21;23.80;62.70
23591;DHT22;11973;52.098;7.582;2023-05-14T12:40:47;23.60;62.50
23591;DHT22;11973;52.098;7.582;2023-05-14T12:43:13;23.50;62.60
23591;DHT22;11973;52.098;7.582;2023-05-14T12:45:39;23.50;62.70
23591;DHT22;11973;52.098;7.582;2023-05-14T12:48:05;23.40;62.60
23591;DHT22;11973;52.098;7.582;2023-05-14T12:50:31;23.30;62.60
23591;DHT22;11973;52.098;7.582;2023-05-14T12:52:57;23.30;62.50
23591;DHT22;11973;52.098;7.582;2023-05-14T12:55:22;23.20;62.30
23591;DHT22;11973;52.098;7.582;2023-05-14T12:57:48;23.20;62.30
23591;DHT22;11973;52.098;7.582;2023-05-14T13:00:14;23.20;62.40
23591;DHT22;11973;52.098;7.582;2023-05-14T13:02:40;23.20;62.30
23591;DHT22;11973;52.098;7.582;2023-05-14T13:05:06;23.20;62.00
23591;DHT22;11973;52.098;7.582;2023-05-14T13:07:32;23.10;61.80
23591;DHT22;11973;52.098;7.582;2023-05-14T13:09:57;23.20;61.90
23591;DHT22;11973;52.098;7.582;2023-05-14T13:12:23;23.40;61.70
23591;DHT22;11973;52.098;7.582;2023-05-14T13:14:49;23.50;61.60
23591;DHT22;11973;52.098;7.582;2023-05-14T13:17:15;23.80;61.30
23591;DHT22;11973;52.098;7.582;2023-05-14T13:19:40;24.00;61.00
23591;DHT22;11973;52.098;7.582;2023-05-14T13:22:06;24.10;60.60
23591;DHT22;11973;52.098;7.582;2023-05-14T13:24:33;24.30;60.20
23591;DHT22;11973;52.098;7.582;2023-05-14T13:26:58;24.50;59.90
23591;DHT22;11973;52.098;7.582;2023-05-14T13:29:24;24.70;59.90
23591;DHT22;11973;52.098;7.582;2023-05-14T13:31:50;25.00;60.00
23591;DHT22;11973;52.098;7.582;2023-05-14T13:34:16;25.20;59.50
23591;DHT22;11973;52.098;7.582;2023-05-14T13:36:41;25.40;59.10
23591;DHT22;11973;52.098;7.582;2023-05-14T13:39:09;25.50;58.60
23591;DHT22;11973;52.098;7.582;2023-05-14T13:41:36;25.60;58.60
23591;DHT22;11973;52.098;7.582;2023-05-14T13:44:02;25.80;58.40
23591;DHT22;11973;52.098;7.582;2023-05-14T13:46:28;26.00;57.90
23591;DHT22;11973;52.098;7.582;2023-05-14T13:48:54;26.00;57.50
23591;DHT22;11973;52.098;7.582;2023-05-14T13:51:21;26.10;57.20
23591;DHT22;11973;52.098;7.582;2023-05-14T13:53:47;26.30;57.10
23591;DHT22;11973;52.098;7.582;2023-05-14T13:56:12;26.40;56.70
23591;DHT22;11973;52.098;7.582;2023-05-14T13:58:38;26.60;56.40
23591;DHT22;11973;52.098;7.582;2023-05-14T14:01:04;26.70;56.60
23591;DHT22;11973;52.098;7.582;2023-05-14T14:03:30;27.00;55.80
23591;DHT22;11973;52.098;7.582;2023-05-14T14:05:55;27.40;56.30
23591;DHT22;11973;52.098;7.582;2023-05-14T14:08:21;27.90;56.20
23591;DHT22;11973;52.098;7.582;2023-05-14T14:10:47;28.30;56.40
23591;DHT22;11973;52.098;7.582;2023-05-14T14:13:13;28.60;55.10
23591;DHT22;11973;52.098;7.582;2023-05-14T14:15:38;28.60;54.10
23591;DHT22;11973;52.098;7.582;2023-05-14T14:18:04;28.40;53.30
23591;DHT22;11973;52.098;7.582;2023-05-14T14:20:30;28.10;53.00
23591;DHT22;11973;52.098;7.582;2023-05-14T14:22:56;27.80;52.90
23591;DHT22;11973;52.098;7.582;2023-05-14T14:25:22;27.60;52.70
23591;DHT22;11973;52.098;7.582;2023-05-14T14:27:48;27.40;53.00
23591;DHT22;11973;52.098;7.582;2023-05-14T14:30:13;27.50;52.80
23591;DHT22;11973;52.098;7.582;2023-05-14T14:32:46;27.80;52.90
23591;DHT22;11973;52.098;7.582;2023-05-14T14:35:14;28.10;52.60
23591;DHT22;11973;52.098;7.582;2023-05-14T14:37:41;28.50;52.50
23591;DHT22;11973;52.098;7.582;2023-05-14T14:40:10;28.90;52.10
23591;DHT22;11973;52.098;7.582;2023-05-14T14:42:36;29.30;51.60
23591;DHT22;11973;52.098;7.582;2023-05-14T14:45:03;29.60;50.70
23591;DHT22;11973;52.098;7.582;2023-05-14T14:47:29;29.70;49.70
23591;DHT22;11973;52.098;7.582;2023-05-14T14:49:56;29.90;49.10
23591;DHT22;11973;52.098;7.582;2023-05-14T14:52:23;30.00;48.50
23591;DHT22;11973;52.098;7.582;2023-05-14T14:54:49;30.10;47.80
23591;DHT22;11973;52.098;7.582;2023-05-14T14:57:15;30.00;47.20
23591;DHT22;11973;52.098;7.582;2023-05-14T14:59:41;29.90;47.00
23591;DHT22;11973;52.098;7.582;2023-05-14T15:02:08;29.90;46.80
23591;DHT22;11973;52.098;7.582;2023-05-14T15:04:34;29.90;46.50
23591;DHT22;11973;52.098;7.582;2023-05-14T15:07:01;29.80;46.20
23591;DHT22;11973;52.098;7.582;2023-05-14T15:09:26;29.70;45.90
23591;DHT22;11973;52.098;7.582;2023-05-14T15:11:52;29.70;45.80
23591;DHT22;11973;52.098;7.582;2023-05-14T15:14:18;29.60;45.60
23591;DHT22;11973;52.098;7.582;2023-05-14T15:16:44;29.60;45.40
23591;DHT22;11973;52.098;7.582;2023-05-14T15:19:09;29.60;45.20
23591;DHT22;11973;52.098;7.582;2023-05-14T15:21:35;29.60;45.20
23591;DHT22;11973;52.098;7.582;2023-05-14T15:24:04;29.60;45.00
23591;DHT22;11973;52.098;7.582;2023-05-14T15:26:30;29.80;45.00
23591;DHT22;11973;52.098;7.582;2023-05-14T15:28:56;29.90;45.00
23591;DHT22;11973;52.098;7.582;2023-05-14T15:31:23;30.00;44.80
23591;DHT22;11973;52.098;7.582;2023-05-14T15:33:49;30.10;44.40
23591;DHT22;11973;52.098;7.582;2023-05-14T15:36:15;30.10;44.10
23591;DHT22;11973;52.098;7.582;2023-05-14T15:38:40;30.10;44.60
23591;DHT22;11973;52.098;7.582;2023-05-14T15:41:06;30.20;44.00
23591;DHT22;11973;52.098;7.582;2023-05-14T15:43:33;30.30;43.90
23591;DHT22;11973;52.098;7.582;2023-05-14T15:45:58;30.50;43.90
23591;DHT22;11973;52.098;7.582;2023-05-14T15:48:24;30.50;43.60
23591;DHT22;11973;52.098;7.582;2023-05-14T15:50:50;30.50;43.30
23591;DHT22;11973;52.098;7.582;2023-05-14T15:53:16;30.50;43.20
23591;DHT22;11973;52.098;7.582;2023-05-14T15:55:42;30.50;43.00
23591;DHT22;11973;52.098;7.582;2023-05-14T15:58:09;30.30;43.00
23591;DHT22;11973;52.098;7.582;2023-05-14T16:00:34;30.00;43.10
23591;DHT22;11973;52.098;7.582;2023-05-14T16:03:00;29.60;42.80
23591;DHT22;11973;52.098;7.582;2023-05-14T16:05:26;29.40;42.70
23591;DHT22;11973;52.098;7.582;2023-05-14T16:07:52;29.20;42.70
23591;DHT22;11973;52.098;7.582;2023-05-14T16:10:18;29.00;42.80
23591;DHT22;11973;52.098;7.582;2023-05-14T16:12:44;28.90;42.70
23591;DHT22;11973;52.098;7.582;2023-05-14T16:15:10;28.80;42.80
23591;DHT22;11973;52.098;7.582;2023-05-14T16:17:36;28.70;42.80
23591;DHT22;11973;52.098;7.582;2023-05-14T16:20:02;28.60;42.80
23591;DHT22;11973;52.098;7.582;2023-05-14T16:22:29;28.60;42.80
23591;DHT22;11973;52.098;7.582;2023-05-14T16:24:57;28.40;42.80
23591;DHT22;11973;52.098;7.582;2023-05-14T16:27:23;28.40;43.10
23591;DHT22;11973;52.098;7.582;2023-05-14T16:29:49;28.20;43.30
23591;DHT22;11973;52.098;7.582;2023-05-14T16:32:15;27.90;43.30
23591;DHT22;11973;52.098;7.582;2023-05-14T16:34:41;27.70;43.40
23591;DHT22;11973;52.098;7.582;2023-05-14T16:37:12;27.50;43.50
23591;DHT22;11973;52.098;7.582;2023-05-14T16:39:38;27.30;43.60
23591;DHT22;11973;52.098;7.582;2023-05-14T16:42:04;27.00;43.70
23591;DHT22;11973;52.098;7.582;2023-05-14T16:44:29;26.80;43.90
23591;DHT22;11973;52.098;7.582;2023-05-14T16:46:56;26.70;44.20
23591;DHT22;11973;52.098;7.582;2023-05-14T16:49:21;26.50;44.40
23591;DHT22;11973;52.098;7.582;2023-05-14T16:51:47;26.40;44.30
23591;DHT22;11973;52.098;7.582;2023-05-14T16:54:13;26.30;44.60
23591;DHT22;11973;52.098;7.582;2023-05-14T16:56:39;26.30;44.80
23591;DHT22;11973;52.098;7.582;2023-05-14T16:59:05;26.20;44.90
23591;DHT22;11973;52.098;7.582;2023-05-14T17:01:33;26.10;44.80
23591;DHT22;11973;52.098;7.582;2023-05-14T17:03:59;26.10;45.00
23591;DHT22;11973;52.098;7.582;2023-05-14T17:06:25;26.10;45.20
23591;DHT22;11973;52.098;7.582;2023-05-14T17:08:50;26.00;45.40
23591;DHT22;11973;52.098;7.582;2023-05-14T17:11:16;25.90;45.60
23591;DHT22;11973;52.098;7.582;2023-05-14T17:13:42;25.90;45.80
23591;DHT22;11973;52.098;7.582;2023-05-14T17:16:08;25.70;46.50
23591;DHT22;11973;52.098;7.582;2023-05-14T17:18:33;25.70;46.10
23591;DHT22;11973;52.098;7.582;2023-05-14T17:20:59;25.60;46.20
23591;DHT22;11973;52.098;7.582;2023-05-14T17:23:26;25.50;46.30
23591;DHT22;11973;52.098;7.582;2023-05-14T17:25:52;25.40;46.50
23591;DHT22;11973;52.098;7.582;2023-05-14T17:28:22;25.20;46.50
23591;DHT22;11973;52.098;7.582;2023-05-14T17:30:52;25.20;46.80
23591;DHT22;11973;52.098;7.582;2023-05-14T17:33:17;25.10;46.90
23591;DHT22;11973;52.098;7.582;2023-05-14T17:35:43;25.00;47.10
23591;DHT22;11973;52.098;7.582;2023-05-14T17:38:10;24.90;47.90
23591;DHT22;11973;52.098;7.582;2023-05-14T17:40:36;24.80;47.40
23591;DHT22;11973;52.098;7.582;2023-05-14T17:43:02;24.70;47.50
23591;DHT22;11973;52.098;7.582;2023-05-14T17:45:30;24.50;47.60
23591;DHT22;11973;52.098;7.582;2023-05-14T17:47:56;24.40;47.90
23591;DHT22;11973;52.098;7.582;2023-05-14T17:50:21;24.30;48.00
23591;DHT22;11973;52.098;7.582;2023-05-14T17:52:47;24.20;48.20
23591;DHT22;11973;52.098;7.582;2023-05-14T17:55:13;24.10;48.40
23591;DHT22;11973;52.098;7.582;2023-05-14T17:57:39;23.90;48.50
23591;DHT22;11973;52.098;7.582;2023-05-14T18:00:07;23.80;48.70
23591;DHT22;11973;52.098;7.582;2023-05-14T18:02:36;23.60;48.80
23591;DHT22;11973;52.098;7.582;2023-05-14T18:05:02;23.50;49.00
23591;DHT22;11973;52.098;7.582;2023-05-14T18:07:38;23.40;49.20
23591;DHT22;11973;52.098;7.582;2023-05-14T18:10:13;23.30;49.50
23591;DHT22;11973;52.098;7.582;2023-05-14T18:13:25;23.10;49.60
23591;DHT22;11973;52.098;7.582;2023-05-14T18:16:17;23.00;49.90
23591;DHT22;11973;52.098;7.582;2023-05-14T18:19:55;22.80;50.00
23591;DHT22;11973;52.098;7.582;2023-05-14T18:22:22;22.60;50.20
23591;DHT22;11973;52.098;7.582;2023-05-14T18:24:48;22.50;50.40
23591;DHT22;11973;52.098;7.582;2023-05-14T18:27:28;22.40;50.60
23591;DHT22;11973;52.098;7.582;2023-05-14T18:33:32;22.10;51.10
23591;DHT22;11973;52.098;7.582;2023-05-14T18:36:12;21.90;51.20
23591;DHT22;11973;52.098;7.582;2023-05-14T18:38:39;21.80;51.50
23591;DHT22;11973;52.098;7.582;2023-05-14T18:41:19;21.60;51.60
23591;DHT22;11973;52.098;7.582;2023-05-14T18:45:16;21.50;52.00
23591;DHT22;11973;52.098;7.582;2023-05-14T18:48:32;21.30;52.10
23591;DHT22;11973;52.098;7.582;2023-05-14T18:50:58;21.20;52.40
23591;DHT22;11973;52.098;7.582;2023-05-14T18:53:24;21.10;52.70
23591;DHT22;11973;52.098;7.582;2023-05-14T18:55:49;21.00;53.00
23591;DHT22;11973;52.098;7.582;2023-05-14T18:58:15;20.90;53.30
23591;DHT22;11973;52.098;7.582;2023-05-14T19:00:42;20.80;53.60
23591;DHT22;11973;52.098;7.582;2023-05-14T19:03:07;20.70;53.80
23591;DHT22;11973;52.098;7.582;2023-05-14T19:05:33;20.60;54.00
23591;DHT22;11973;52.098;7.582;2023-05-14T19:07:59;20.50;54.90
23591;DHT22;11973;52.098;7.582;2023-05-14T19:10:25;20.40;54.50
23591;DHT22;11973;52.098;7.582;2023-05-14T19:12:51;20.30;54.80
23591;DHT22;11973;52.098;7.582;2023-05-14T19:15:16;20.20;55.10
23591;DHT22;11973;52.098;7.582;2023-05-14T19:17:42;20.10;55.40
23591;DHT22;11973;52.098;7.582;2023-05-14T19:20:09;20.10;55.70
23591;DHT22;11973;52.098;7.582;2023-05-14T19:22:35;20.00;55.80
23591;DHT22;11973;52.098;7.582;2023-05-14T19:25:01;19.90;56.10
23591;DHT22;11973;52.098;7.582;2023-05-14T19:27:27;19.80;56.20
23591;DHT22;11973;52.098;7.582;2023-05-14T19:29:53;19.80;56.50
23591;DHT22;11973;52.098;7.582;2023-05-14T19:32:19;19.60;56.70
23591;DHT22;11973;52.098;7.582;2023-05-14T19:34:44;19.60;57.00
23591;DHT22;11973;52.098;7.582;2023-05-14T19:37:11;19.60;57.20